Pagrindinis puslapis
METAR-TAF:

METAR-TAF

Oro uostai :

Salak

Marua, Kamerūnas

platuma: 10-27N, ilguma: 014-15E, Aukštis: 423 m

Dabartinis oras

Ataskaita buvo paskelbta 10 valandos ir 31 minutes, ne 16:00 UTC
Vėjas 6 kt iš Rytų/Šiaurės Rytų, svyruoja nuo Šiaurės/Šiaurės Rytų ir Rytų/Pietryčių
Temperatūra 31°C
Drėgmė 24%
Slėgis 1012 hPa
Matomumas: 6000 m

METAR: FKKL 201600Z 06006KT 030V110 6000 NSC 31/08 Q1012

Laikas: 03:31 (02:31 UTC)

Prognozė

Ataskaita buvo paskelbta 21 valandos ir 31 minutes, ne 05:00 UTC
Prognozė galioja nuo 20 metu 06 UTC su 20 metu 18 UTC
Vėjas 8 kt nuo kintamojo kryptimis
Matomumas: 2000 m
dulkės

TAF: FKKL 200500Z 2006/2018 VRB08KT 2000 DU NSC

Orai ataskaitas ir orų prognozės (METAR, TAF).

turimą stotys yra geltonos ir raudonos taškus žemėlapyje.

Perkelti pele per norėdami pamatyti stoties vardą.

Tada spustelėkite, norėdami matyti oro stebėjimo ir prognozės.

Norėdami pakeisti žemėlapį: spustelėkite ant žalios mygtukų su juodo kryžiaus žemyn,; žalią mygtuką su brūkšneliu, jei norite nutolinti; arba žalių rodyklių gretimoms žemėlapius.


METAR-TAF: